createdAt,value
2023-01-19T00:01:07.347Z,8.02
2023-01-19T00:03:36.789Z,8.63
2023-01-19T00:06:08.333Z,8.45
2023-01-19T00:08:36.013Z,8.32
2023-01-19T00:11:03.833Z,9.15
2023-01-19T00:13:31.194Z,9.23
2023-01-19T00:15:58.203Z,7.57
2023-01-19T00:18:25.741Z,8.32
2023-01-19T00:20:52.600Z,9.52
2023-01-19T00:23:20.847Z,7.20
2023-01-19T00:25:49.055Z,8.93
2023-01-19T00:28:18.818Z,9.60
2023-01-19T00:30:46.210Z,9.68
2023-01-19T00:33:16.481Z,9.68
2023-01-19T00:35:43.692Z,7.47
2023-01-19T00:38:12.371Z,9.90
2023-01-19T00:40:39.678Z,7.82
2023-01-19T00:43:06.752Z,7.63
2023-01-19T00:45:34.165Z,9.02
2023-01-19T00:48:01.650Z,9.98
2023-01-19T00:50:32.553Z,8.80
2023-01-19T00:53:01.864Z,8.00
2023-01-19T00:55:32.251Z,9.60
2023-01-19T00:57:59.462Z,8.90
2023-01-19T01:00:26.817Z,8.73
2023-01-19T01:02:55.311Z,7.75
2023-01-19T01:05:22.756Z,8.88
2023-01-19T01:07:50.730Z,8.10
2023-01-19T01:10:23.711Z,7.38
2023-01-19T01:12:57.323Z,8.35
2023-01-19T01:15:27.760Z,9.02
2023-01-19T01:17:55.960Z,9.00
2023-01-19T01:20:28.520Z,8.35
2023-01-19T01:22:57.568Z,10.40
2023-01-19T01:25:27.776Z,12.50
2023-01-19T01:27:55.466Z,12.95
2023-01-19T01:30:23.122Z,12.80
2023-01-19T01:32:50.573Z,13.18
2023-01-19T01:35:18.422Z,13.10
2023-01-19T01:37:45.579Z,11.98
2023-01-19T01:40:17.613Z,12.15
2023-01-19T01:42:45.787Z,10.98
2023-01-19T01:45:40.164Z,10.02
2023-01-19T01:48:30.894Z,10.32
2023-01-19T01:51:32.089Z,10.82
2023-01-19T01:54:27.004Z,11.20
2023-01-19T01:57:02.979Z,9.65
2023-01-19T01:59:44.484Z,9.07
2023-01-19T02:02:39.965Z,10.20
2023-01-19T02:05:33.498Z,9.45
2023-01-19T02:08:49.270Z,8.98
2023-01-19T02:11:35.879Z,9.50
2023-01-19T02:14:06.128Z,8.75
2023-01-19T02:16:36.363Z,7.88
2023-01-19T02:19:08.537Z,11.02
2023-01-19T02:22:08.060Z,9.27
2023-01-19T02:24:36.090Z,8.43
2023-01-19T02:27:06.273Z,9.60
2023-01-19T02:29:34.933Z,10.25
2023-01-19T02:32:02.984Z,10.02
2023-01-19T02:34:31.447Z,10.65
2023-01-19T02:37:12.008Z,11.13
2023-01-19T02:39:52.355Z,10.02
2023-01-19T02:42:24.033Z,10.65
2023-01-19T02:44:55.480Z,11.48
2023-01-19T02:47:23.564Z,10.85
2023-01-19T02:50:00.962Z,10.35
2023-01-19T02:52:28.422Z,10.75
2023-01-19T02:55:27.797Z,10.10
2023-01-19T02:58:24.691Z,9.05
2023-01-19T03:01:50.006Z,10.50
2023-01-19T03:04:27.657Z,9.93
2023-01-19T03:07:38.937Z,10.90
2023-01-19T03:10:45.129Z,9.95
2023-01-19T03:13:54.717Z,8.43
2023-01-19T03:16:45.366Z,10.75
2023-01-19T03:19:28.627Z,9.38
2023-01-19T03:22:05.224Z,12.05
2023-01-19T03:24:40.359Z,9.07
2023-01-19T03:27:40.711Z,10.85
2023-01-19T03:30:22.125Z,10.40
2023-01-19T03:32:59.629Z,11.23
2023-01-19T03:35:35.146Z,10.32
2023-01-19T03:38:12.901Z,10.82
2023-01-19T03:40:41.572Z,11.00
2023-01-19T03:43:10.311Z,10.23
2023-01-19T03:45:40.114Z,10.45
2023-01-19T03:48:07.969Z,11.90
2023-01-19T03:50:35.147Z,12.68
2023-01-19T03:53:11.050Z,11.13
2023-01-19T03:55:47.280Z,12.25
2023-01-19T03:58:14.573Z,10.55
2023-01-19T04:00:41.618Z,10.75
2023-01-19T04:03:16.693Z,11.68
2023-01-19T04:05:44.803Z,9.60
2023-01-19T04:08:12.870Z,9.20
2023-01-19T04:10:39.930Z,11.20
2023-01-19T04:13:06.866Z,10.35
2023-01-19T04:15:34.023Z,8.82
2023-01-19T04:18:01.548Z,8.68
2023-01-19T04:20:29.379Z,10.52
2023-01-19T04:23:00.931Z,10.98
2023-01-19T04:25:29.191Z,9.40
2023-01-19T04:27:58.185Z,10.93
2023-01-19T04:30:26.147Z,12.30
2023-01-19T04:32:55.330Z,10.52
2023-01-19T04:35:23.499Z,9.90
2023-01-19T04:37:50.653Z,11.13
2023-01-19T04:40:17.838Z,9.65
2023-01-19T04:42:46.155Z,10.30
2023-01-19T04:45:14.568Z,10.25
2023-01-19T04:47:42.535Z,9.50
2023-01-19T04:50:11.545Z,11.02
2023-01-19T04:52:38.522Z,11.40
2023-01-19T04:55:07.106Z,9.23
2023-01-19T04:57:34.118Z,10.77
2023-01-19T05:00:01.129Z,10.48
2023-01-19T05:02:28.207Z,11.82
2023-01-19T05:04:55.085Z,11.30
2023-01-19T05:07:21.943Z,9.20
2023-01-19T05:09:48.952Z,9.43
2023-01-19T05:12:16.215Z,11.70
2023-01-19T05:14:43.278Z,10.70
2023-01-19T05:17:10.874Z,10.15
2023-01-19T05:19:37.882Z,11.13
2023-01-19T05:22:06.495Z,11.13
2023-01-19T05:24:33.500Z,10.77
2023-01-19T05:27:00.376Z,13.20
2023-01-19T05:29:27.385Z,10.10
2023-01-19T05:31:54.298Z,10.02
2023-01-19T05:34:21.288Z,9.02
2023-01-19T05:36:48.175Z,11.82
2023-01-19T05:39:15.483Z,12.05
2023-01-19T05:41:43.362Z,11.68
2023-01-19T05:44:10.281Z,10.55
2023-01-19T05:46:37.785Z,11.77
2023-01-19T05:49:05.016Z,11.30
2023-01-19T05:51:35.131Z,10.02
2023-01-19T05:54:02.444Z,11.85
2023-01-19T05:56:29.352Z,10.93
2023-01-19T05:58:56.452Z,12.73
2023-01-19T06:01:23.523Z,12.82
2023-01-19T06:03:50.649Z,12.32
2023-01-19T06:06:18.663Z,12.32
2023-01-19T06:08:45.952Z,12.55
2023-01-19T06:11:13.256Z,11.50
2023-01-19T06:13:41.983Z,13.35
2023-01-19T06:16:10.486Z,12.50
2023-01-19T06:18:37.748Z,11.90
2023-01-19T06:21:10.324Z,10.98
2023-01-19T06:23:37.248Z,12.20
2023-01-19T06:26:04.335Z,12.98
2023-01-19T06:28:31.659Z,11.85
2023-01-19T06:30:58.673Z,11.32
2023-01-19T06:33:27.738Z,10.90
2023-01-19T06:35:56.248Z,13.90
2023-01-19T06:38:23.773Z,16.90
2023-01-19T06:41:03.045Z,11.75
2023-01-19T06:43:31.280Z,13.95
2023-01-19T06:46:00.482Z,12.70
2023-01-19T06:48:27.833Z,13.43
2023-01-19T06:50:55.285Z,11.82
2023-01-19T06:53:22.796Z,14.05
2023-01-19T06:55:49.677Z,11.90
2023-01-19T06:58:16.781Z,10.73
2023-01-19T07:00:43.851Z,12.60
2023-01-19T07:03:22.187Z,12.30
2023-01-19T07:05:56.708Z,9.43
2023-01-19T07:08:24.455Z,12.68
2023-01-19T07:11:24.455Z,12.85
2023-01-19T07:13:41.279Z,11.50
2023-01-19T07:16:14.336Z,12.15
2023-01-19T07:18:41.517Z,13.68
2023-01-19T07:21:09.307Z,11.70
2023-01-19T07:23:37.953Z,11.65
2023-01-19T07:26:05.004Z,12.05
2023-01-19T07:28:32.741Z,12.27
2023-01-19T07:30:59.794Z,11.70
2023-01-19T07:33:27.030Z,11.95
2023-01-19T07:35:54.625Z,11.50
2023-01-19T07:38:21.808Z,10.52
2023-01-19T07:40:48.681Z,10.27
2023-01-19T07:43:16.352Z,10.98
2023-01-19T07:45:44.824Z,11.70
2023-01-19T07:48:11.953Z,11.45
2023-01-19T07:50:38.871Z,10.65
2023-01-19T07:53:09.061Z,12.82
2023-01-19T07:55:36.158Z,11.43
2023-01-19T07:58:07.343Z,11.73
2023-01-19T08:00:37.864Z,12.57
2023-01-19T08:03:05.694Z,12.63
2023-01-19T08:05:33.775Z,12.80
2023-01-19T08:08:00.706Z,13.15
2023-01-19T08:10:29.198Z,15.10
2023-01-19T08:12:58.092Z,15.07
2023-01-19T08:15:26.241Z,14.25
2023-01-19T08:18:02.219Z,15.30
2023-01-19T08:20:30.012Z,13.75
2023-01-19T08:23:01.198Z,12.82
2023-01-19T08:25:44.264Z,15.23
2023-01-19T08:28:15.675Z,13.18
2023-01-19T08:30:44.919Z,12.15
2023-01-19T08:33:13.705Z,13.32
2023-01-19T08:35:47.147Z,13.32
2023-01-19T08:38:14.009Z,11.88
2023-01-19T08:40:42.427Z,12.88
2023-01-19T08:43:16.853Z,12.65
2023-01-19T08:45:51.413Z,13.18
2023-01-19T08:48:22.639Z,14.10
2023-01-19T08:50:51.997Z,14.50
2023-01-19T08:53:21.028Z,12.93
2023-01-19T08:55:47.967Z,13.70
2023-01-19T08:58:14.889Z,12.63
2023-01-19T09:04:00.659Z,13.55
2023-01-19T09:06:28.326Z,11.80
2023-01-19T09:08:55.220Z,13.93
2023-01-19T09:11:22.126Z,13.25
2023-01-19T09:13:49.685Z,13.75
2023-01-19T09:16:16.663Z,12.43
2023-01-19T09:18:44.992Z,12.43
2023-01-19T09:21:13.692Z,11.95
2023-01-19T09:23:40.698Z,10.90
2023-01-19T09:26:07.642Z,11.35
2023-01-19T09:28:34.874Z,9.88
2023-01-19T09:31:07.993Z,9.70
2023-01-19T09:33:35.678Z,11.35
2023-01-19T09:36:02.693Z,9.45
2023-01-19T09:38:32.611Z,10.80
2023-01-19T09:41:01.130Z,9.85
2023-01-19T09:43:42.528Z,9.80
2023-01-19T09:46:29.908Z,10.50
2023-01-19T09:49:04.895Z,10.48
2023-01-19T09:51:41.801Z,9.55
2023-01-19T09:54:29.751Z,7.75
2023-01-19T09:56:56.714Z,9.07
2023-01-19T09:59:29.524Z,8.23
2023-01-19T10:02:36.092Z,7.70
2023-01-19T10:05:30.710Z,7.43
2023-01-19T10:08:55.419Z,6.95
2023-01-19T10:12:26.710Z,7.85
2023-01-19T10:15:12.012Z,9.10
2023-01-19T10:18:11.721Z,7.83
2023-01-19T10:20:50.928Z,7.60
2023-01-19T10:23:41.259Z,6.40
2023-01-19T10:26:26.966Z,6.80
2023-01-19T10:29:05.181Z,10.77
2023-01-19T10:31:37.916Z,8.67
2023-01-19T10:34:04.988Z,8.60
2023-01-19T10:36:39.649Z,7.70
2023-01-19T10:39:15.761Z,5.87
2023-01-19T10:41:50.760Z,6.00
2023-01-19T10:44:35.585Z,5.47
2023-01-19T10:47:06.982Z,6.67
2023-01-19T10:49:42.994Z,5.37
2023-01-19T10:52:37.402Z,6.30
2023-01-19T10:55:08.092Z,6.53
2023-01-19T10:57:43.237Z,6.63
2023-01-19T11:00:43.399Z,7.10
2023-01-19T11:03:29.282Z,5.27
2023-01-19T11:06:16.059Z,5.07
2023-01-19T11:08:51.228Z,5.03
2023-01-19T11:11:21.405Z,4.57
2023-01-19T11:14:14.529Z,4.07
2023-01-19T11:16:50.295Z,4.63
2023-01-19T11:19:28.922Z,4.45
2023-01-19T11:22:24.636Z,4.90
2023-01-19T11:24:52.189Z,4.65
2023-01-19T11:27:21.927Z,6.60
2023-01-19T11:30:02.223Z,5.38
2023-01-19T11:32:29.117Z,7.30
2023-01-19T11:34:56.119Z,5.68
2023-01-19T11:37:31.827Z,5.65
2023-01-19T11:40:04.105Z,6.13
2023-01-19T11:42:34.459Z,7.78
2023-01-19T11:45:19.806Z,6.38
2023-01-19T11:47:50.205Z,5.47
2023-01-19T11:50:32.154Z,3.97
2023-01-19T11:53:24.136Z,4.65
2023-01-19T11:56:29.050Z,5.38
2023-01-19T11:58:56.657Z,4.63
2023-01-19T12:01:38.753Z,5.13
2023-01-19T12:04:18.615Z,4.00
2023-01-19T12:06:53.919Z,3.90
2023-01-19T12:09:30.088Z,4.33
2023-01-19T12:12:08.314Z,4.20
2023-01-19T12:14:45.905Z,4.70
2023-01-19T12:17:40.358Z,5.60
2023-01-19T12:20:31.379Z,4.68
2023-01-19T12:23:10.823Z,5.20
2023-01-19T12:26:20.013Z,5.07
2023-01-19T12:28:52.095Z,4.95
2023-01-19T12:31:23.018Z,4.43
2023-01-19T12:33:51.425Z,5.30
2023-01-19T12:36:30.192Z,4.18
2023-01-19T12:39:16.756Z,4.75
2023-01-19T12:41:45.836Z,4.53
2023-01-19T12:44:16.103Z,3.92
2023-01-19T12:46:55.039Z,4.15
2023-01-19T12:49:40.527Z,3.97
2023-01-19T12:52:36.059Z,4.30
2023-01-19T12:55:15.045Z,3.80
2023-01-19T12:57:54.952Z,3.10
2023-01-19T13:00:21.874Z,3.28
2023-01-19T13:02:59.760Z,2.40
2023-01-19T13:05:33.481Z,2.30
2023-01-19T13:08:06.535Z,2.08
2023-01-19T13:11:10.675Z,2.53
2023-01-19T13:13:48.721Z,2.42
2023-01-19T13:16:18.538Z,2.33
2023-01-19T13:18:58.443Z,2.50
2023-01-19T13:21:35.453Z,2.25
2023-01-19T13:24:09.799Z,3.22
2023-01-19T13:26:54.887Z,2.65
2023-01-19T13:29:34.953Z,3.05
2023-01-19T13:32:19.354Z,2.78
2023-01-19T13:34:57.482Z,3.10
2023-01-19T13:37:36.960Z,2.63
2023-01-19T13:40:05.193Z,3.05
2023-01-19T13:42:41.405Z,3.15
2023-01-19T13:45:39.817Z,3.35
2023-01-19T13:48:16.606Z,3.97
2023-01-19T13:50:58.398Z,2.63
2023-01-19T13:53:25.609Z,2.43
2023-01-19T13:56:21.839Z,2.33
2023-01-19T13:59:12.994Z,3.10
2023-01-19T14:01:46.508Z,2.10
2023-01-19T14:04:33.830Z,2.35
2023-01-19T14:07:13.091Z,2.00
2023-01-19T14:09:40.050Z,2.00
2023-01-19T14:12:17.491Z,2.80
2023-01-19T14:14:49.458Z,2.65
2023-01-19T14:17:30.595Z,3.85
2023-01-19T14:20:00.986Z,2.60
2023-01-19T14:22:42.158Z,3.00
2023-01-19T14:25:33.513Z,2.95
2023-01-19T14:28:40.498Z,3.60
2023-01-19T14:31:24.075Z,3.72
2023-01-19T14:33:55.672Z,3.20
2023-01-19T14:36:36.135Z,4.20
2023-01-19T14:39:04.135Z,4.18
2023-01-19T14:41:52.207Z,4.78
2023-01-19T14:44:38.572Z,3.92
2023-01-19T14:47:20.871Z,4.90
2023-01-19T14:49:48.178Z,5.03
2023-01-19T14:52:36.701Z,4.50
2023-01-19T14:55:08.138Z,4.78
2023-01-19T14:57:37.041Z,6.32
2023-01-19T15:00:20.964Z,6.97
2023-01-19T15:02:48.491Z,7.10
2023-01-19T15:05:16.318Z,5.07
2023-01-19T15:07:46.756Z,4.10
2023-01-19T15:10:26.132Z,2.97
2023-01-19T15:12:56.234Z,3.45
2023-01-19T15:15:34.917Z,4.15
2023-01-19T15:18:06.476Z,4.18
2023-01-19T15:20:33.375Z,3.58
2023-01-19T15:23:00.240Z,3.92
2023-01-19T15:25:27.170Z,3.50
2023-01-19T15:27:59.349Z,5.00
2023-01-19T15:30:33.463Z,5.43
2023-01-19T15:33:01.810Z,5.25
2023-01-19T15:35:28.755Z,4.35
2023-01-19T15:37:55.808Z,5.13
2023-01-19T15:40:25.885Z,3.75
2023-01-19T15:42:52.795Z,4.35
2023-01-19T15:45:39.013Z,3.88
2023-01-19T15:48:11.205Z,6.32
2023-01-19T15:50:44.986Z,7.07
2023-01-19T15:53:20.508Z,5.43
2023-01-19T15:55:56.649Z,5.72
2023-01-19T15:58:24.906Z,8.90
2023-01-19T16:00:59.183Z,10.80
2023-01-19T16:03:26.511Z,9.90
2023-01-19T16:05:53.427Z,13.18
2023-01-19T16:08:21.894Z,10.43
2023-01-19T16:10:48.843Z,16.20
2023-01-19T16:13:15.733Z,19.92
2023-01-19T16:15:42.662Z,16.10
2023-01-19T16:18:09.708Z,12.32
2023-01-19T16:20:36.621Z,14.32
2023-01-19T16:23:18.042Z,11.15
2023-01-19T16:25:54.309Z,10.93
2023-01-19T16:28:21.181Z,9.07
2023-01-19T16:30:48.238Z,6.18
2023-01-19T16:33:15.224Z,9.88
2023-01-19T16:35:42.082Z,9.05
2023-01-19T16:38:09.946Z,9.70
2023-01-19T16:40:41.834Z,7.43
2023-01-19T16:43:21.889Z,7.43
2023-01-19T16:46:04.216Z,6.90
2023-01-19T16:48:32.189Z,7.57
2023-01-19T16:51:05.929Z,10.30
2023-01-19T16:53:35.171Z,10.45
2023-01-19T16:56:13.230Z,7.35
2023-01-19T16:58:43.594Z,6.22
2023-01-19T17:01:20.150Z,4.85
2023-01-19T17:03:47.892Z,3.30
2023-01-19T17:06:22.718Z,3.42
2023-01-19T17:08:52.619Z,3.70
2023-01-19T17:11:30.881Z,3.95
2023-01-19T17:14:06.930Z,4.05
2023-01-19T17:16:36.061Z,3.75
2023-01-19T17:19:07.356Z,4.95
2023-01-19T17:21:35.847Z,4.47
2023-01-19T17:24:02.771Z,4.45
2023-01-19T17:26:31.026Z,7.07
2023-01-19T17:29:08.007Z,21.17
2023-01-19T17:31:36.292Z,9.10
2023-01-19T17:34:04.307Z,5.20
2023-01-19T17:36:33.692Z,6.75
2023-01-19T17:39:08.334Z,7.20
2023-01-19T17:41:36.129Z,11.30
2023-01-19T17:44:06.219Z,4.72
2023-01-19T17:46:38.055Z,5.45
2023-01-19T17:49:07.735Z,4.15
2023-01-19T17:51:35.809Z,4.20
2023-01-19T17:54:04.015Z,5.72
2023-01-19T17:56:36.614Z,7.53
2023-01-19T17:59:07.533Z,11.85
2023-01-19T18:01:39.748Z,7.32
2023-01-19T18:04:08.888Z,8.27
2023-01-19T18:06:37.109Z,8.13
2023-01-19T18:09:06.841Z,6.85
2023-01-19T18:11:35.032Z,7.53
2023-01-19T18:14:02.072Z,7.60
2023-01-19T18:16:30.638Z,7.68
2023-01-19T18:18:57.979Z,6.05
2023-01-19T18:21:28.141Z,7.32
2023-01-19T18:24:03.030Z,6.45
2023-01-19T18:26:33.267Z,5.47
2023-01-19T18:29:00.879Z,5.65
2023-01-19T18:31:28.747Z,5.78
2023-01-19T18:33:55.851Z,6.03
2023-01-19T18:36:23.048Z,6.40
2023-01-19T18:38:50.133Z,6.60
2023-01-19T18:41:21.216Z,6.90
2023-01-19T18:43:49.087Z,8.40
2023-01-19T18:46:17.041Z,7.97
2023-01-19T18:48:44.535Z,8.65
2023-01-19T18:51:15.791Z,8.15
2023-01-19T18:53:44.211Z,9.05
2023-01-19T18:56:15.611Z,9.20
2023-01-19T18:58:43.288Z,8.95
2023-01-19T19:01:32.301Z,7.78
2023-01-19T19:03:59.884Z,6.85
2023-01-19T19:06:27.760Z,8.20
2023-01-19T19:08:59.018Z,6.78
2023-01-19T19:11:26.928Z,8.48
2023-01-19T19:14:01.500Z,7.90
2023-01-19T19:16:30.080Z,7.63
2023-01-19T19:18:57.058Z,7.53
2023-01-19T19:21:25.294Z,7.20
2023-01-19T19:23:58.016Z,7.82
2023-01-19T19:26:28.108Z,6.10
2023-01-19T19:28:55.307Z,8.80
2023-01-19T19:31:26.015Z,7.82
2023-01-19T19:33:54.930Z,5.82
2023-01-19T19:36:24.618Z,5.38
2023-01-19T19:38:51.811Z,5.82
2023-01-19T19:41:24.105Z,5.38
2023-01-19T19:43:51.183Z,5.60
2023-01-19T19:46:21.271Z,6.15
2023-01-19T19:48:49.670Z,5.82
2023-01-19T19:51:27.785Z,6.10
2023-01-19T19:53:59.700Z,6.53
2023-01-19T19:56:30.914Z,7.03
2023-01-19T19:58:59.655Z,8.70
2023-01-19T20:01:33.396Z,5.32
2023-01-19T20:04:12.497Z,6.55
2023-01-19T20:06:44.550Z,5.35
2023-01-19T20:09:14.751Z,5.40
2023-01-19T20:11:46.451Z,5.78
2023-01-19T20:14:16.085Z,5.85
2023-01-19T20:16:43.578Z,7.22
2023-01-19T20:19:11.227Z,5.50
2023-01-19T20:21:41.948Z,5.80
2023-01-19T20:24:18.173Z,6.07
2023-01-19T20:26:52.727Z,7.13
2023-01-19T20:29:20.703Z,6.68
2023-01-19T20:31:53.911Z,6.47
2023-01-19T20:34:28.403Z,7.07
2023-01-19T20:36:56.965Z,5.65
2023-01-19T20:39:25.118Z,6.25
2023-01-19T20:41:52.761Z,6.57
2023-01-19T20:44:25.032Z,6.72
2023-01-19T20:46:54.535Z,7.22
2023-01-19T20:49:22.570Z,5.70
2023-01-19T20:51:51.771Z,7.38
2023-01-19T20:54:27.208Z,7.25
2023-01-19T20:56:54.463Z,7.15
2023-01-19T20:59:22.131Z,7.10
2023-01-19T21:01:49.831Z,7.10
2023-01-19T21:04:17.697Z,6.85
2023-01-19T21:06:45.084Z,7.00
2023-01-19T21:09:11.964Z,7.53
2023-01-19T21:11:39.913Z,6.13
2023-01-19T21:14:07.796Z,6.28
2023-01-19T21:16:36.681Z,7.38
2023-01-19T21:19:05.020Z,7.47
2023-01-19T21:21:32.288Z,8.10
2023-01-19T21:24:03.141Z,7.95
2023-01-19T21:26:31.332Z,7.93
2023-01-19T21:29:01.091Z,6.85
2023-01-19T21:31:28.781Z,6.82
2023-01-19T21:33:57.709Z,7.35
2023-01-19T21:36:25.254Z,7.82
2023-01-19T21:38:52.793Z,7.22
2023-01-19T21:41:20.108Z,5.65
2023-01-19T21:43:47.196Z,6.50
2023-01-19T21:46:28.909Z,7.60
2023-01-19T21:49:02.915Z,6.95
2023-01-19T21:51:33.398Z,6.90
2023-01-19T21:54:05.584Z,7.15
2023-01-19T21:56:33.961Z,7.65
2023-01-19T21:59:04.490Z,6.57
2023-01-19T22:01:33.589Z,7.32
2023-01-19T22:04:01.061Z,6.90
2023-01-19T22:06:29.524Z,6.50
2023-01-19T22:08:58.189Z,7.85
2023-01-19T22:11:25.477Z,6.47
2023-01-19T22:13:52.769Z,8.30
2023-01-19T22:16:23.180Z,6.35
2023-01-19T22:18:56.166Z,7.28
2023-01-19T22:21:33.425Z,6.00
2023-01-19T22:24:06.986Z,7.55
2023-01-19T22:26:36.734Z,7.47
2023-01-19T22:29:06.623Z,6.53
2023-01-19T22:31:33.669Z,6.95
2023-01-19T22:34:00.586Z,6.68
2023-01-19T22:36:36.011Z,8.20
2023-01-19T22:39:12.619Z,8.25
2023-01-19T22:41:44.736Z,9.38
2023-01-19T22:44:21.400Z,9.15
2023-01-19T22:46:51.018Z,11.27
2023-01-19T22:49:18.807Z,9.00
2023-01-19T22:51:47.001Z,9.35
2023-01-19T22:54:14.539Z,7.57
2023-01-19T22:56:42.514Z,7.82
2023-01-19T22:59:09.764Z,7.30
2023-01-19T23:01:43.785Z,9.60
2023-01-19T23:04:15.706Z,9.95
2023-01-19T23:06:46.675Z,8.35
2023-01-19T23:09:14.959Z,7.78
2023-01-19T23:11:51.195Z,8.75
2023-01-19T23:14:22.114Z,8.18
2023-01-19T23:16:49.455Z,9.05
2023-01-19T23:19:17.643Z,9.07
2023-01-19T23:21:45.763Z,8.82
2023-01-19T23:24:12.722Z,9.70
2023-01-19T23:26:39.809Z,10.05
2023-01-19T23:29:14.931Z,7.85
2023-01-19T23:31:49.455Z,8.30
2023-01-19T23:34:17.070Z,7.32
2023-01-19T23:36:44.966Z,8.25
2023-01-19T23:39:22.047Z,8.30
2023-01-19T23:41:50.038Z,6.78
2023-01-19T23:44:18.316Z,7.70
2023-01-19T23:46:46.397Z,8.00
2023-01-19T23:49:13.975Z,7.60
2023-01-19T23:51:42.666Z,6.68
2023-01-19T23:54:09.554Z,7.10
2023-01-19T23:56:38.334Z,7.35
2023-01-19T23:59:13.947Z,7.05
